createdAt,value
2022-10-02T00:03:31.163Z,100542.28
2022-10-02T00:08:40.012Z,100542.97
2022-10-02T00:13:47.276Z,100543.69
2022-10-02T00:18:51.449Z,100553.22
2022-10-02T00:23:59.664Z,100558.34
2022-10-02T00:29:21.291Z,100560.84
2022-10-02T00:34:31.386Z,100567.63
2022-10-02T00:39:48.746Z,100563.09
2022-10-02T00:45:19.521Z,100570.06
2022-10-02T00:50:36.935Z,100569.91
2022-10-02T00:55:57.793Z,100574.91
2022-10-02T01:01:06.630Z,100569.38
2022-10-02T01:06:10.274Z,100566.53
2022-10-02T01:11:14.509Z,100576.13
2022-10-02T01:16:17.920Z,100575.13
2022-10-02T01:21:26.060Z,100581.25
2022-10-02T01:26:30.336Z,100591.44
2022-10-02T01:31:35.947Z,100594.00
2022-10-02T01:36:39.045Z,100593.88
2022-10-02T01:41:45.505Z,100608.84
2022-10-02T01:47:00.108Z,100603.50
2022-10-02T01:52:20.127Z,100616.72
2022-10-02T01:57:36.672Z,100619.28
2022-10-02T02:02:49.422Z,100617.56
2022-10-02T02:07:59.350Z,100618.53
2022-10-02T02:13:10.529Z,100630.84
2022-10-02T02:18:22.212Z,100624.03
2022-10-02T02:23:29.447Z,100625.06
2022-10-02T02:28:36.329Z,100636.81
2022-10-02T02:33:43.966Z,100637.75
2022-10-02T02:38:50.829Z,100639.44
2022-10-02T02:44:00.110Z,100647.25
2022-10-02T02:49:09.009Z,100637.53
2022-10-02T02:54:17.394Z,100634.84
2022-10-02T02:59:27.394Z,100641.00
2022-10-02T03:04:30.189Z,100634.03
2022-10-02T03:09:34.407Z,100641.00
2022-10-02T03:14:52.782Z,100637.47
2022-10-02T03:20:04.681Z,100648.00
2022-10-02T03:25:13.272Z,100647.94
2022-10-02T03:30:20.666Z,100638.16
2022-10-02T03:35:26.291Z,100635.50
2022-10-02T03:40:29.644Z,100625.00
2022-10-02T03:45:50.427Z,100633.63
2022-10-02T03:50:54.328Z,100635.31
2022-10-02T03:56:04.862Z,100636.03
2022-10-02T04:01:14.282Z,100645.59
2022-10-02T04:06:23.394Z,100646.41
2022-10-02T04:11:33.060Z,100647.31
2022-10-02T04:16:41.813Z,100663.09
2022-10-02T04:21:50.458Z,100660.31
2022-10-02T04:27:01.971Z,100655.91
2022-10-02T04:32:13.664Z,100669.88
2022-10-02T04:37:37.300Z,100665.44
2022-10-02T04:42:51.668Z,100674.03
2022-10-02T04:48:29.364Z,100677.53
2022-10-02T04:53:45.342Z,100684.41
2022-10-02T04:59:04.940Z,100687.78
2022-10-02T05:04:27.735Z,100687.72
2022-10-02T05:09:34.232Z,100700.78
2022-10-02T05:14:59.503Z,100706.91
2022-10-02T05:20:26.249Z,100707.72
2022-10-02T05:25:45.286Z,100701.38
2022-10-02T05:30:53.672Z,100696.03
2022-10-02T05:36:15.854Z,100699.59
2022-10-02T05:41:26.700Z,100712.75
2022-10-02T05:46:35.549Z,100717.00
2022-10-02T05:51:45.346Z,100711.81
2022-10-02T05:56:55.786Z,100718.97
2022-10-02T06:02:02.801Z,100710.28
2022-10-02T06:07:11.318Z,100717.50
2022-10-02T06:12:22.481Z,100724.72
2022-10-02T06:17:30.228Z,100737.41
2022-10-02T06:22:40.964Z,100740.56
2022-10-02T06:27:49.251Z,100743.06
2022-10-02T06:32:56.650Z,100732.25
2022-10-02T06:44:31.619Z,100726.06
2022-10-02T06:49:46.942Z,100732.78
2022-10-02T06:55:08.442Z,100744.78
2022-10-02T07:00:18.088Z,100741.53
2022-10-02T07:05:49.063Z,100738.22
2022-10-02T07:11:02.646Z,100754.16
2022-10-02T07:16:25.313Z,100761.38
2022-10-02T07:21:39.112Z,100764.63
2022-10-02T07:26:48.758Z,100775.03
2022-10-02T07:32:11.991Z,100775.22
2022-10-02T07:37:23.105Z,100764.09
2022-10-02T07:42:41.664Z,100781.88
2022-10-02T07:48:05.991Z,100777.34
2022-10-02T07:53:19.198Z,100778.22
2022-10-02T07:58:33.564Z,100785.50
2022-10-02T08:03:43.983Z,100797.22
2022-10-02T08:08:53.495Z,100797.88
2022-10-02T08:14:02.514Z,100800.28
2022-10-02T08:19:11.758Z,100797.06
2022-10-02T08:24:17.204Z,100799.13
2022-10-02T08:29:25.264Z,100800.25
2022-10-02T08:34:30.755Z,100802.75
2022-10-02T08:39:50.429Z,100800.00
2022-10-02T08:45:35.224Z,100803.34
2022-10-02T08:51:12.967Z,100817.50
2022-10-02T08:56:40.032Z,100809.69
2022-10-02T09:02:11.292Z,100811.69
2022-10-02T09:08:11.643Z,100810.09
2022-10-02T09:13:49.914Z,100808.81
2022-10-02T09:19:01.543Z,100799.81
2022-10-02T09:24:48.291Z,100805.78
2022-10-02T09:30:28.013Z,100806.16
2022-10-02T09:35:55.724Z,100803.50
2022-10-02T09:41:24.648Z,100815.94
2022-10-02T09:46:52.843Z,100818.69
2022-10-02T09:52:31.911Z,100814.56
2022-10-02T09:58:13.222Z,100812.84
2022-10-02T10:03:59.955Z,100809.84
2022-10-02T10:10:00.092Z,100817.97
2022-10-02T10:15:47.465Z,100812.63
2022-10-02T10:21:41.261Z,100827.91
2022-10-02T10:27:18.794Z,100835.50
2022-10-02T10:32:57.002Z,100842.97
2022-10-02T10:38:39.695Z,100843.03
2022-10-02T10:44:16.050Z,100842.88
2022-10-02T10:49:47.617Z,100846.88
2022-10-02T10:55:04.314Z,100850.63
2022-10-02T11:00:20.928Z,100854.69
2022-10-02T11:06:18.044Z,100861.19
2022-10-02T11:11:24.367Z,100852.22
2022-10-02T11:16:59.651Z,100849.50
2022-10-02T11:22:19.007Z,100856.56
2022-10-02T11:27:34.637Z,100850.63
2022-10-02T11:32:51.648Z,100872.00
2022-10-02T11:38:35.401Z,100869.50
2022-10-02T11:44:10.035Z,100868.19
2022-10-02T11:49:46.359Z,100873.19
2022-10-02T11:55:22.339Z,100873.16
2022-10-02T12:00:56.901Z,100880.75
2022-10-02T12:06:05.482Z,100880.22
2022-10-02T12:11:16.490Z,100877.34
2022-10-02T12:16:29.939Z,100884.81
2022-10-02T12:22:06.405Z,100893.06
2022-10-02T12:27:18.650Z,100897.19
2022-10-02T12:32:49.746Z,100900.41
2022-10-02T12:38:04.671Z,100895.00
2022-10-02T12:43:44.260Z,100906.09
2022-10-02T12:49:04.804Z,100895.41
2022-10-02T12:54:29.942Z,100895.97
2022-10-02T12:59:42.302Z,100898.59
2022-10-02T13:05:20.867Z,100890.03
2022-10-02T13:10:25.737Z,100894.41
2022-10-02T13:15:38.096Z,100900.94
2022-10-02T13:20:49.003Z,100911.97
2022-10-02T13:26:06.679Z,100912.59
2022-10-02T13:31:20.961Z,100911.25
2022-10-02T13:36:35.114Z,100910.63
2022-10-02T13:41:52.204Z,100921.38
2022-10-02T13:47:26.668Z,100919.28
2022-10-02T13:52:36.125Z,100919.38
2022-10-02T13:57:52.188Z,100920.22
2022-10-02T14:03:08.022Z,100920.16
2022-10-02T14:08:27.626Z,100917.69
2022-10-02T14:13:55.219Z,100914.38
2022-10-02T14:19:20.151Z,100919.97
2022-10-02T14:25:01.015Z,100929.06
2022-10-02T14:30:08.149Z,100937.94
2022-10-02T14:35:36.121Z,100943.94
2022-10-02T14:40:50.635Z,100944.88
2022-10-02T14:46:20.808Z,100941.78
2022-10-02T14:51:40.038Z,100938.41
2022-10-02T14:57:19.732Z,100947.03
2022-10-02T15:02:37.376Z,100949.50
2022-10-02T15:07:42.523Z,100956.94
2022-10-02T15:12:51.047Z,100961.72
2022-10-02T15:18:14.859Z,100964.81
2022-10-02T15:23:40.443Z,100968.78
2022-10-02T15:28:54.453Z,100970.16
2022-10-02T15:34:14.180Z,100979.34
2022-10-02T15:39:50.236Z,100981.06
2022-10-02T15:45:13.555Z,100989.59
2022-10-02T15:50:35.261Z,100994.81
2022-10-02T15:55:43.341Z,101003.44
2022-10-02T16:01:08.694Z,101004.06
2022-10-02T16:06:22.342Z,101009.31
2022-10-02T16:11:44.380Z,101010.00
2022-10-02T16:17:01.927Z,101014.94
2022-10-02T16:22:18.037Z,101018.09
2022-10-02T16:27:48.683Z,101022.94
2022-10-02T16:33:10.303Z,101022.47
2022-10-02T16:38:19.049Z,101030.88
2022-10-02T16:43:39.718Z,101041.19
2022-10-02T16:48:50.595Z,101045.28
2022-10-02T16:53:58.133Z,101049.31
2022-10-02T16:59:09.869Z,101057.66
2022-10-02T17:04:26.854Z,101058.91
2022-10-02T17:09:39.093Z,101079.81
2022-10-02T17:14:50.492Z,101087.28
2022-10-02T17:20:03.383Z,101089.53
2022-10-02T17:25:17.032Z,101094.56
2022-10-02T17:30:25.104Z,101098.56
2022-10-02T17:35:40.326Z,101113.03
2022-10-02T17:40:51.366Z,101103.09
2022-10-02T17:46:06.450Z,101119.63
2022-10-02T17:51:50.818Z,101122.03
2022-10-02T17:57:06.299Z,101129.44
2022-10-02T18:02:25.050Z,101142.22
2022-10-02T18:07:48.187Z,101141.78
2022-10-02T18:13:07.634Z,101150.00
2022-10-02T18:18:34.009Z,101156.44
2022-10-02T18:24:04.953Z,101162.97
2022-10-02T18:29:25.055Z,101173.06
2022-10-02T18:35:09.524Z,101178.19
2022-10-02T18:40:24.926Z,101189.50
2022-10-02T18:45:41.571Z,101186.63
2022-10-02T18:51:09.253Z,101195.38
2022-10-02T18:56:13.812Z,101195.22
2022-10-02T19:01:39.975Z,101195.22
2022-10-02T19:06:50.420Z,101204.75
2022-10-02T19:11:58.079Z,101224.03
2022-10-02T19:17:03.130Z,101227.56
2022-10-02T19:22:12.620Z,101231.88
2022-10-02T19:27:24.089Z,101232.63
2022-10-02T19:32:31.428Z,101240.38
2022-10-02T19:37:39.363Z,101249.03
2022-10-02T19:42:49.096Z,101252.41
2022-10-02T19:47:55.262Z,101256.72
2022-10-02T19:53:00.770Z,101259.38
2022-10-02T19:58:14.066Z,101266.31
2022-10-02T20:03:20.048Z,101267.13
2022-10-02T20:08:26.981Z,101266.38
2022-10-02T20:13:37.394Z,101265.63
2022-10-02T20:18:40.831Z,101273.47
2022-10-02T20:23:50.387Z,101279.66
2022-10-02T20:29:00.290Z,101279.75
2022-10-02T20:34:08.136Z,101283.34
2022-10-02T20:39:14.923Z,101280.88
2022-10-02T20:44:19.427Z,101298.53
2022-10-02T20:49:52.905Z,101300.13
2022-10-02T20:55:00.753Z,101306.13
2022-10-02T21:00:12.006Z,101307.97
2022-10-02T21:05:48.757Z,101323.88
2022-10-02T21:11:13.357Z,101323.03
2022-10-02T21:16:33.914Z,101319.72
2022-10-02T21:22:14.988Z,101332.91
2022-10-02T21:27:53.438Z,101326.81
2022-10-02T21:33:06.908Z,101333.06
2022-10-02T21:38:58.519Z,101327.94
2022-10-02T21:44:46.998Z,101330.72
2022-10-02T21:50:28.417Z,101336.81
2022-10-02T21:56:14.757Z,101343.91
2022-10-02T22:02:08.146Z,101343.91
2022-10-02T22:07:21.604Z,101347.59
2022-10-02T22:12:39.318Z,101337.03
2022-10-02T22:17:52.134Z,101348.69
2022-10-02T22:23:18.978Z,101364.84
2022-10-02T22:28:37.098Z,101366.53
2022-10-02T22:33:54.220Z,101369.09
2022-10-02T22:39:07.406Z,101365.56
2022-10-02T22:44:20.633Z,101376.13
2022-10-02T22:49:29.491Z,101378.78
2022-10-02T22:54:45.200Z,101370.78
2022-10-02T22:59:56.397Z,101375.25
2022-10-02T23:05:06.021Z,101374.47
2022-10-02T23:10:22.161Z,101377.97
2022-10-02T23:15:51.680Z,101380.69
2022-10-02T23:21:02.699Z,101383.41
2022-10-02T23:26:13.553Z,101386.84
2022-10-02T23:31:22.937Z,101390.44
2022-10-02T23:36:31.596Z,101391.16
2022-10-02T23:41:47.538Z,101409.56
2022-10-02T23:47:25.364Z,101408.78
2022-10-02T23:52:46.264Z,101414.06
2022-10-02T23:58:18.542Z,101423.81
